Aeroporto :
LOGIN :

Iscrizione | Disclaimer

   EN    FR    IT 

 










Sommario :    VFR   VFR Marginale   IFR   IFR Intensivo   IFR Molto Intensivo
Visibilità : 
Base nubi : 
>= 8 km
>= 3000ft
5 / 8 km
1000 / 3000 ft
1500m / 5 km
500 / 1000 ft
800 / 1500m
200 / 500 ft
< 800m
< 200 ft
Simboli :   Temporali  Nebbia  Neve Forte  Precipitazioni Forti  Vento > 20 kt
SIGMETs :   Varie  Temporali  Ghiacco  Turbolenza  Onda orograficha  Ceneri Vulcaniche






- Altitudine del aeroporto : 443 ft
- Codice IATA : SQQ


EYSA - Siauliai

ULTIMO METAR :
  • 121150Z 01009KT 330V040 CAVOK 19/09 Q1023 BLU NOSIG

METARs OBSOLETI :
  • 121120Z 35006KT 310V020 CAVOK 19/07 Q1024 BLU NOSIG
  • 121050Z 36009KT 330V030 CAVOK 19/07 Q1024 BLU NOSIG
  • 121020Z 02007KT 330V110 CAVOK 18/07 Q1024 BLU NOSIG
  • 120950Z 36010KT 340V050 CAVOK 17/07 Q1024 BLU NOSIG
  • 120920Z 03008KT 300V060 CAVOK 17/07 Q1024 BLU NOSIG

TAF TAF EYSA
Valido dal 12 a 12 ore il 12 a 21 ore UTC


121100Z 1212/1221 02010KT 9999 SCT045



MetMap, La meteo Aeronautica in un colpo d'occhio ! - Copyright ORBIFLY Dicembre 2007 - Disclaimer

ORBIFLY MET'MAP TEAM :

Programmazione e sviluppo : Alexandra Zaïnal
Concezione : Baudouin d'Aumeries
Aiuto per la programmazione : Marc-Olivier Méhu
Supporto tecnico e logistico : Manuel Goepfert
Aiuto per la traduzione : Arnaldo La Scala

Contatto : metmap@orbifly.com




FONTI E CREDITI :

   NOAA